Time;durP1;ratioP1;P1;durP2;ratioP2;P2;SDS_P1;SDS_P2;PMS_P1;PMS_P2;Temp;Humidity;BMP_temperature;BMP_pressure;BME280_temperature;BME280_humidity;BME280_pressure;Samples;Min_cycle;Max_cycle;Signal;HPM_P1;HPM_P2
2021/09/25 00:00:27;;;;;;;24.27;16.73;;;14.40;99.90;;;;;;4992553;28;20041;-68
2021/09/25 00:02:56;;;;;;;24.77;16.63;;;14.40;99.90;;;;;;5004135;28;20174;-68
2021/09/25 00:05:37;;;;;;;23.05;15.07;;;14.50;99.90;;;;;;5002993;28;20033;-68
2021/09/25 00:08:05;;;;;;;23.15;16.75;;;14.60;99.90;;;;;;5002896;28;20450;-69
2021/09/25 00:10:34;;;;;;;22.30;15.95;;;14.60;99.90;;;;;;5001964;28;20045;-69
2021/09/25 00:13:00;;;;;;;20.27;14.23;;;14.70;99.90;;;;;;5001886;28;20200;-69
2021/09/25 00:15:29;;;;;;;22.33;15.25;;;14.70;99.90;;;;;;5002396;28;20952;-69
2021/09/25 00:17:58;;;;;;;23.70;15.70;;;14.70;99.90;;;;;;5003679;28;20050;-69
2021/09/25 00:20:25;;;;;;;26.63;16.25;;;14.70;99.90;;;;;;5000107;28;20060;-68
2021/09/25 00:22:52;;;;;;;26.90;15.63;;;14.70;99.90;;;;;;4986268;28;20054;-68
2021/09/25 00:25:19;;;;;;;24.38;15.40;;;14.70;99.90;;;;;;4967331;28;20130;-69
2021/09/25 00:27:46;;;;;;;24.65;15.50;;;14.60;99.90;;;;;;4999268;28;20148;-68
2021/09/25 00:30:14;;;;;;;23.23;15.07;;;14.60;99.90;;;;;;4981168;28;20050;-68
2021/09/25 00:32:41;;;;;;;23.95;15.98;;;14.60;99.90;;;;;;5002017;28;20060;-68
2021/09/25 00:35:09;;;;;;;29.75;17.83;;;14.50;99.90;;;;;;5001974;28;20054;-69
2021/09/25 00:37:37;;;;;;;25.55;15.43;;;14.50;99.90;;;;;;5003116;28;20052;-68
2021/09/25 00:40:05;;;;;;;24.13;15.60;;;14.50;99.90;;;;;;5001181;28;20054;-69
2021/09/25 00:42:32;;;;;;;27.20;16.60;;;14.50;99.90;;;;;;4991428;28;20046;-67
2021/09/25 00:44:59;;;;;;;28.60;16.65;;;14.60;99.90;;;;;;5000366;28;20061;-67
2021/09/25 00:47:26;;;;;;;21.80;15.43;;;14.50;99.90;;;;;;5001793;28;20041;-68
2021/09/25 00:49:53;;;;;;;27.17;16.45;;;14.50;99.90;;;;;;4982792;28;20136;-68
2021/09/25 00:52:20;;;;;;;23.30;16.10;;;14.70;99.90;;;;;;4980766;28;20498;-67
2021/09/25 00:54:48;;;;;;;27.20;17.25;;;14.70;99.90;;;;;;4981000;28;20053;-68
2021/09/25 00:57:15;;;;;;;23.30;16.45;;;14.60;99.90;;;;;;4995790;28;20445;-68
2021/09/25 00:59:43;;;;;;;21.60;15.73;;;14.60;99.90;;;;;;4988437;28;20061;-68
2021/09/25 01:02:17;;;;;;;25.58;16.55;;;14.60;99.90;;;;;;4964809;28;20205;-69
2021/09/25 01:04:49;;;;;;;23.52;15.93;;;14.60;99.90;;;;;;4964046;28;20495;-69
2021/09/25 01:07:16;;;;;;;26.83;15.70;;;14.60;99.90;;;;;;4983407;28;20414;-69
2021/09/25 01:09:43;;;;;;;26.35;16.95;;;14.60;99.90;;;;;;4996493;28;20088;-69
2021/09/25 01:12:13;;;;;;;25.52;15.75;;;14.60;99.90;;;;;;4996099;28;20110;-69
2021/09/25 01:14:40;;;;;;;23.13;14.95;;;14.60;99.90;;;;;;4997652;28;20054;-69
2021/09/25 01:17:12;;;;;;;26.48;16.20;;;14.60;99.90;;;;;;4984116;28;20049;-69
2021/09/25 01:19:41;;;;;;;30.63;17.33;;;14.50;99.90;;;;;;4983883;28;20417;-69
2021/09/25 01:22:09;;;;;;;24.63;15.02;;;14.50;99.90;;;;;;5001655;28;20069;-69
2021/09/25 01:24:36;;;;;;;24.15;15.30;;;14.60;99.90;;;;;;5000568;28;20239;-70
2021/09/25 01:27:04;;;;;;;22.90;15.52;;;14.50;99.90;;;;;;4999817;28;20041;-69
2021/09/25 01:29:31;;;;;;;26.33;15.20;;;14.50;99.90;;;;;;4996970;28;20065;-68
2021/09/25 01:31:58;;;;;;;25.60;16.60;;;14.50;99.90;;;;;;5001797;28;20397;-69
2021/09/25 01:34:25;;;;;;;23.65;15.68;;;14.50;99.90;;;;;;5004532;28;20188;-70
2021/09/25 01:36:52;;;;;;;24.65;16.80;;;14.40;99.90;;;;;;5005410;28;20054;-68
2021/09/25 01:39:19;;;;;;;24.52;15.43;;;14.40;99.90;;;;;;5003841;28;20045;-68
2021/09/25 01:41:46;;;;;;;29.38;17.15;;;14.40;99.90;;;;;;5006796;28;20049;-67
2021/09/25 01:44:12;;;;;;;26.80;16.95;;;14.40;99.90;;;;;;4994142;28;20049;-68
2021/09/25 01:46:39;;;;;;;24.00;16.02;;;14.40;99.90;;;;;;4989515;28;20057;-68
2021/09/25 01:49:06;;;;;;;27.35;16.05;;;14.40;99.90;;;;;;5005258;28;20502;-69
2021/09/25 01:51:33;;;;;;;27.17;16.35;;;14.40;99.90;;;;;;5004780;28;20049;-67
2021/09/25 01:54:00;;;;;;;30.45;16.27;;;14.40;99.90;;;;;;5006337;28;20053;-67
2021/09/25 01:56:27;;;;;;;30.40;16.88;;;14.40;99.90;;;;;;5003843;28;20058;-69
2021/09/25 01:58:54;;;;;;;26.45;17.13;;;14.40;99.90;;;;;;4996598;28;20050;-69
2021/09/25 02:01:21;;;;;;;25.70;16.27;;;14.40;99.90;;;;;;4994678;28;20446;-70
2021/09/25 02:03:48;;;;;;;28.42;17.13;;;14.40;99.90;;;;;;4985211;28;20503;-70
2021/09/25 02:06:15;;;;;;;29.98;17.08;;;14.30;99.90;;;;;;4985472;28;20066;-68
2021/09/25 02:08:43;;;;;;;28.60;17.88;;;14.30;99.90;;;;;;4985822;28;20377;-70
2021/09/25 02:11:10;;;;;;;24.98;17.85;;;14.30;99.90;;;;;;4963756;28;20517;-68
2021/09/25 02:13:37;;;;;;;27.73;18.42;;;14.30;99.90;;;;;;4991163;28;20399;-68
2021/09/25 02:16:07;;;;;;;27.60;17.88;;;14.30;99.90;;;;;;5002791;28;20159;-68
2021/09/25 02:18:35;;;;;;;29.95;17.55;;;14.20;99.90;;;;;;4986228;28;20082;-68
2021/09/25 02:21:03;;;;;;;28.40;18.50;;;14.30;99.90;;;;;;4989946;28;20046;-68
2021/09/25 02:23:32;;;;;;;31.10;18.48;;;14.20;99.90;;;;;;5004405;28;20065;-67
2021/09/25 02:25:59;;;;;;;29.70;18.98;;;14.10;99.90;;;;;;4987070;28;20050;-68
2021/09/25 02:28:28;;;;;;;33.35;18.52;;;14.10;99.90;;;;;;5002451;28;20034;-68
2021/09/25 02:30:55;;;;;;;30.38;19.27;;;14.20;99.90;;;;;;4984415;28;20070;-67
2021/09/25 02:33:22;;;;;;;32.33;18.13;;;14.10;99.90;;;;;;4984670;28;20051;-68
2021/09/25 02:35:49;;;;;;;31.83;19.13;;;14.10;99.90;;;;;;4967161;28;20050;-67
2021/09/25 02:38:17;;;;;;;34.85;18.52;;;14.00;99.90;;;;;;4966339;28;20110;-67
2021/09/25 02:40:45;;;;;;;33.97;20.00;;;14.00;99.90;;;;;;4983633;28;20577;-68
2021/09/25 02:43:12;;;;;;;39.70;20.05;;;14.00;99.90;;;;;;4973908;28;20072;-67
2021/09/25 02:45:39;;;;;;;35.47;18.83;;;13.90;99.90;;;;;;4985336;28;20405;-68
2021/09/25 02:48:06;;;;;;;34.28;18.67;;;14.00;99.90;;;;;;5001430;28;20046;-69
2021/09/25 02:50:33;;;;;;;32.20;18.85;;;14.00;99.90;;;;;;5005038;28;20262;-67
2021/09/25 02:53:00;;;;;;;37.33;19.85;;;13.90;99.90;;;;;;5004253;28;20054;-69
2021/09/25 02:55:26;;;;;;;36.42;19.85;;;13.90;99.90;;;;;;5004313;28;20474;-69
2021/09/25 02:57:53;;;;;;;36.63;20.70;;;13.90;99.90;;;;;;5003648;28;20065;-68
2021/09/25 03:00:22;;;;;;;35.50;18.98;;;13.90;99.90;;;;;;4991897;28;20045;-69
2021/09/25 03:02:49;;;;;;;37.58;21.17;;;13.90;99.90;;;;;;5005330;28;20509;-68
2021/09/25 03:05:17;;;;;;;38.70;22.17;;;13.80;99.90;;;;;;5002794;28;20088;-68
2021/09/25 03:07:44;;;;;;;37.45;21.25;;;13.80;99.90;;;;;;4970593;28;20041;-68
2021/09/25 03:10:11;;;;;;;37.60;20.35;;;13.80;99.90;;;;;;4984241;28;20054;-68
2021/09/25 03:12:38;;;;;;;38.55;21.85;;;13.80;99.90;;;;;;4998107;28;20049;-68
2021/09/25 03:15:06;;;;;;;40.28;21.85;;;13.80;99.90;;;;;;4969265;28;20042;-69
2021/09/25 03:17:33;;;;;;;37.78;21.60;;;13.70;99.90;;;;;;4983001;28;20061;-69
2021/09/25 03:20:00;;;;;;;36.10;21.33;;;13.80;99.90;;;;;;4966877;28;20306;-68
2021/09/25 03:22:27;;;;;;;39.47;21.85;;;13.70;99.90;;;;;;4982741;28;20207;-69
2021/09/25 03:24:54;;;;;;;42.33;21.48;;;13.70;99.90;;;;;;5002040;28;20114;-68
2021/09/25 03:27:22;;;;;;;39.03;22.00;;;13.70;99.90;;;;;;5002085;28;20305;-68
2021/09/25 03:29:49;;;;;;;39.42;20.60;;;13.70;99.90;;;;;;4994134;28;20324;-68
2021/09/25 03:32:16;;;;;;;43.38;22.58;;;13.80;99.90;;;;;;4977492;28;20289;-68
2021/09/25 03:34:42;;;;;;;41.25;22.50;;;13.80;99.90;;;;;;5003572;28;20053;-68
2021/09/25 03:37:10;;;;;;;35.03;21.27;;;13.80;99.90;;;;;;5004424;28;20065;-68
2021/09/25 03:39:37;;;;;;;39.13;20.45;;;13.80;99.90;;;;;;5003815;28;20136;-68
2021/09/25 03:42:04;;;;;;;38.05;20.48;;;13.80;99.90;;;;;;4998952;28;20062;-68
2021/09/25 03:44:30;;;;;;;37.97;21.80;;;13.80;99.90;;;;;;5001541;28;20518;-68
2021/09/25 03:46:58;;;;;;;34.33;20.35;;;13.90;99.90;;;;;;4975007;28;20058;-67
2021/09/25 03:49:25;;;;;;;38.10;21.27;;;13.90;99.90;;;;;;4982653;28;20118;-68
2021/09/25 03:51:51;;;;;;;38.83;21.80;;;13.90;99.90;;;;;;4982724;28;20054;-68
2021/09/25 03:54:18;;;;;;;35.65;19.42;;;13.90;99.90;;;;;;4991884;28;20047;-68
2021/09/25 03:56:45;;;;;;;33.47;20.75;;;13.90;99.90;;;;;;5001446;28;20034;-68
2021/09/25 03:59:12;;;;;;;33.05;19.35;;;13.90;99.90;;;;;;4992591;28;20050;-68
2021/09/25 04:01:39;;;;;;;31.95;19.42;;;13.90;99.90;;;;;;5001341;28;20061;-68
2021/09/25 04:04:06;;;;;;;36.35;19.48;;;14.00;99.90;;;;;;5003519;28;20077;-68
2021/09/25 04:06:33;;;;;;;33.05;18.83;;;14.00;99.90;;;;;;4968683;28;20190;-68
2021/09/25 04:09:00;;;;;;;30.85;17.48;;;14.00;99.90;;;;;;4984128;28;20064;-68
2021/09/25 04:11:27;;;;;;;32.25;18.05;;;14.00;99.90;;;;;;5001016;28;20065;-68
2021/09/25 04:13:53;;;;;;;30.20;18.60;;;14.10;99.90;;;;;;4998932;28;20449;-68
2021/09/25 04:16:20;;;;;;;26.88;17.52;;;14.10;99.90;;;;;;4999675;28;20426;-68
2021/09/25 04:18:47;;;;;;;29.50;16.90;;;14.10;99.90;;;;;;4985453;28;20045;-68
2021/09/25 04:21:15;;;;;;;27.25;16.92;;;14.20;99.90;;;;;;5000926;28;20125;-68
2021/09/25 04:23:42;;;;;;;28.73;16.70;;;14.20;99.90;;;;;;4985169;28;20053;-67
2021/09/25 04:26:09;;;;;;;28.17;16.75;;;14.20;99.90;;;;;;4984836;28;20053;-68
2021/09/25 04:28:36;;;;;;;28.45;15.38;;;14.30;99.90;;;;;;4997765;28;20061;-68
2021/09/25 04:31:04;;;;;;;27.92;15.63;;;14.30;99.90;;;;;;4983519;28;20054;-68
2021/09/25 04:33:30;;;;;;;28.95;17.08;;;14.30;99.90;;;;;;5002621;28;20054;-68
2021/09/25 04:35:57;;;;;;;23.55;15.32;;;14.30;99.90;;;;;;5001973;28;20050;-68
2021/09/25 04:38:24;;;;;;;31.20;16.08;;;14.40;99.90;;;;;;5000856;28;20050;-68
2021/09/25 04:40:51;;;;;;;27.55;15.25;;;14.40;99.90;;;;;;5001196;28;20064;-68
2021/09/25 04:43:18;;;;;;;21.63;13.50;;;14.40;99.90;;;;;;4986728;28;20042;-68
2021/09/25 04:45:44;;;;;;;25.80;14.68;;;14.40;99.90;;;;;;4992787;28;20109;-68
2021/09/25 04:48:11;;;;;;;24.15;14.25;;;14.50;99.90;;;;;;4982207;28;20054;-68
2021/09/25 04:50:38;;;;;;;24.45;14.38;;;14.50;99.90;;;;;;4981883;28;20057;-68
2021/09/25 04:53:12;;;;;;;21.65;12.75;;;14.50;99.90;;;;;;4983104;28;20058;-68
2021/09/25 04:55:40;;;;;;;26.10;13.63;;;14.50;99.90;;;;;;4985459;28;20410;-68
2021/09/25 04:58:07;;;;;;;25.45;13.30;;;14.50;99.90;;;;;;5001723;28;20521;-69
2021/09/25 05:00:34;;;;;;;20.83;12.50;;;14.50;99.90;;;;;;4994372;28;20045;-67
2021/09/25 05:03:02;;;;;;;21.73;12.70;;;14.50;99.90;;;;;;5002417;28;20046;-68
2021/09/25 05:05:30;;;;;;;20.98;12.23;;;14.50;99.90;;;;;;4996291;28;20561;-69
2021/09/25 05:07:57;;;;;;;29.27;14.55;;;14.50;99.90;;;;;;5004091;28;20600;-69
2021/09/25 05:10:24;;;;;;;23.10;13.75;;;14.60;99.90;;;;;;5013162;28;20120;-70
2021/09/25 05:12:51;;;;;;;23.52;12.80;;;14.60;99.90;;;;;;5001875;28;20057;-68
2021/09/25 05:15:18;;;;;;;21.45;13.70;;;14.70;99.90;;;;;;4985445;28;20050;-68
2021/09/25 05:17:45;;;;;;;23.67;13.43;;;14.60;99.90;;;;;;4992309;28;20466;-68
2021/09/25 05:20:12;;;;;;;27.23;14.95;;;14.70;99.90;;;;;;4985870;28;20070;-68
2021/09/25 05:22:39;;;;;;;26.25;14.60;;;14.70;99.90;;;;;;4969901;28;20106;-68
2021/09/25 05:25:07;;;;;;;22.15;14.00;;;14.60;99.90;;;;;;4987024;28;20061;-68
2021/09/25 05:27:34;;;;;;;24.58;14.75;;;14.70;99.90;;;;;;4992578;28;20038;-68
2021/09/25 05:30:00;;;;;;;23.30;14.35;;;14.70;99.90;;;;;;4995455;28;20054;-68
2021/09/25 05:32:27;;;;;;;24.02;15.00;;;14.80;99.90;;;;;;5001222;28;20472;-68
2021/09/25 05:34:54;;;;;;;25.17;14.80;;;14.80;99.90;;;;;;5012276;28;20067;-68
2021/09/25 05:37:21;;;;;;;24.70;14.48;;;14.80;99.90;;;;;;5020498;28;20046;-68
2021/09/25 05:39:54;;;;;;;25.60;13.82;;;14.90;99.90;;;;;;5004406;28;20050;-68
2021/09/25 05:42:28;;;;;;;22.92;14.95;;;14.90;99.90;;;;;;4985614;28;20234;-67
2021/09/25 05:44:55;;;;;;;20.57;12.97;;;14.90;99.90;;;;;;4988823;28;20488;-68
2021/09/25 05:47:23;;;;;;;24.02;13.90;;;14.90;99.90;;;;;;5002333;28;20791;-68
2021/09/25 05:49:50;;;;;;;21.80;13.35;;;14.90;99.90;;;;;;5005817;28;20049;-68
2021/09/25 05:52:18;;;;;;;21.88;13.68;;;14.90;99.90;;;;;;5006942;28;20046;-67
2021/09/25 05:54:45;;;;;;;24.20;12.45;;;14.90;99.90;;;;;;5007915;28;20130;-68
2021/09/25 05:57:12;;;;;;;22.77;12.63;;;14.90;99.90;;;;;;4991067;28;20053;-67
2021/09/25 05:59:39;;;;;;;22.42;12.32;;;14.90;99.90;;;;;;4977115;28;20398;-68
2021/09/25 06:02:06;;;;;;;22.92;12.68;;;14.90;99.90;;;;;;4985862;28;20042;-68
2021/09/25 06:04:36;;;;;;;22.25;12.77;;;14.90;99.90;;;;;;5001218;28;20053;-68
2021/09/25 06:07:04;;;;;;;22.15;13.73;;;14.80;99.90;;;;;;5004652;28;20109;-68
2021/09/25 06:09:35;;;;;;;31.38;15.25;;;14.80;99.90;;;;;;5004593;28;20071;-67
2021/09/25 06:12:02;;;;;;;25.90;14.65;;;14.80;99.90;;;;;;5006393;28;20049;-68
2021/09/25 06:14:29;;;;;;;23.98;15.43;;;14.80;99.90;;;;;;5006796;28;20074;-68
2021/09/25 06:16:56;;;;;;;25.45;15.40;;;14.80;99.90;;;;;;5007003;28;20054;-69
2021/09/25 06:19:23;;;;;;;29.63;16.83;;;14.70;99.90;;;;;;5004536;28;20060;-67
2021/09/25 06:21:50;;;;;;;28.77;15.85;;;14.70;99.90;;;;;;5005101;28;20553;-67
2021/09/25 06:24:17;;;;;;;30.55;16.63;;;14.70;99.90;;;;;;4973359;28;20046;-68
2021/09/25 06:26:44;;;;;;;25.27;17.77;;;14.70;99.90;;;;;;4988043;28;20104;-68
2021/09/25 06:29:11;;;;;;;26.17;16.52;;;14.70;99.90;;;;;;5002666;28;20053;-68
2021/09/25 06:31:38;;;;;;;28.27;17.23;;;14.80;99.90;;;;;;4996856;28;20054;-68
2021/09/25 06:34:05;;;;;;;26.30;16.75;;;14.80;99.90;;;;;;4996930;28;20046;-68
2021/09/25 06:36:34;;;;;;;26.85;16.75;;;14.90;99.90;;;;;;4989032;28;20073;-68
2021/09/25 06:39:01;;;;;;;24.20;15.88;;;15.00;99.90;;;;;;5003475;28;20046;-68
2021/09/25 06:41:28;;;;;;;28.20;17.10;;;15.10;99.90;;;;;;5004001;28;20046;-68
2021/09/25 06:43:55;;;;;;;27.13;16.83;;;15.20;99.90;;;;;;5004702;28;20077;-68
2021/09/25 06:46:21;;;;;;;26.52;15.63;;;15.20;99.90;;;;;;5000911;28;20045;-68
2021/09/25 06:48:49;;;;;;;28.75;16.00;;;15.20;99.90;;;;;;5001998;28;20133;-68
2021/09/25 06:51:17;;;;;;;29.10;18.02;;;15.30;99.90;;;;;;5002524;28;20441;-68
2021/09/25 06:53:44;;;;;;;25.90;16.45;;;15.50;99.90;;;;;;4986697;28;20069;-68
2021/09/25 06:56:11;;;;;;;29.08;18.45;;;15.60;99.90;;;;;;5002692;28;20053;-68
2021/09/25 06:58:38;;;;;;;33.38;18.70;;;15.60;99.90;;;;;;4996131;28;20050;-68
2021/09/25 07:01:05;;;;;;;29.13;18.33;;;15.60;99.90;;;;;;4996018;28;20741;-68
2021/09/25 07:03:32;;;;;;;27.08;18.48;;;15.60;99.90;;;;;;5005179;28;20070;-68
2021/09/25 07:06:00;;;;;;;27.90;18.92;;;15.60;99.90;;;;;;5003938;28;20514;-68
2021/09/25 07:08:26;;;;;;;36.13;19.60;;;15.70;99.90;;;;;;5002882;28;20046;-68
2021/09/25 07:10:53;;;;;;;27.63;17.30;;;15.60;99.90;;;;;;5003129;28;20054;-67
2021/09/25 07:13:20;;;;;;;25.02;17.23;;;15.70;99.90;;;;;;5002723;28;20042;-69
2021/09/25 07:15:48;;;;;;;26.48;18.73;;;15.70;99.90;;;;;;5003726;28;20165;-68
2021/09/25 07:18:15;;;;;;;27.52;18.10;;;15.80;99.90;;;;;;4986235;28;20046;-68
2021/09/25 07:20:43;;;;;;;27.35;18.98;;;15.90;99.90;;;;;;5001866;28;20056;-69
2021/09/25 07:23:10;;;;;;;28.67;17.88;;;16.10;99.90;;;;;;4977002;28;20050;-69
2021/09/25 07:25:39;;;;;;;27.92;18.38;;;16.20;99.90;;;;;;4983818;28;20403;-68
2021/09/25 07:28:07;;;;;;;29.42;19.05;;;16.30;99.90;;;;;;4980669;28;20299;-68
2021/09/25 07:30:37;;;;;;;24.75;18.95;;;16.30;99.90;;;;;;4991496;28;20046;-70
2021/09/25 07:33:05;;;;;;;29.02;19.92;;;16.40;99.90;;;;;;5000459;28;20046;-69
2021/09/25 07:35:34;;;;;;;21.73;15.55;;;16.50;99.90;;;;;;4984342;28;20052;-69
2021/09/25 07:38:03;;;;;;;24.70;17.88;;;16.70;99.90;;;;;;4983134;28;20070;-69
2021/09/25 07:40:30;;;;;;;24.40;16.90;;;16.70;99.90;;;;;;4994270;28;20505;-69
2021/09/25 07:42:57;;;;;;;23.33;17.63;;;16.70;99.90;;;;;;5002776;28;20276;-69
2021/09/25 07:45:24;;;;;;;27.05;17.48;;;16.70;99.90;;;;;;4999177;28;20293;-69
2021/09/25 07:47:51;;;;;;;24.20;18.08;;;16.70;99.90;;;;;;4999814;28;20049;-69
2021/09/25 07:50:19;;;;;;;26.25;19.00;;;16.60;99.90;;;;;;4984969;28;20465;-68
2021/09/25 07:52:45;;;;;;;22.95;17.13;;;16.70;99.90;;;;;;5005014;28;20071;-69
2021/09/25 07:55:13;;;;;;;27.02;18.33;;;16.60;99.90;;;;;;4992470;28;20054;-68
2021/09/25 07:57:41;;;;;;;21.05;15.95;;;16.60;99.90;;;;;;4969670;28;20487;-69
2021/09/25 08:00:11;;;;;;;25.25;16.38;;;16.60;99.90;;;;;;4999770;28;20384;-68
2021/09/25 08:02:38;;;;;;;21.17;15.40;;;16.60;99.90;;;;;;4985190;28;20215;-68
2021/09/25 08:05:05;;;;;;;19.90;15.15;;;16.60;99.90;;;;;;4983411;28;20073;-68
2021/09/25 08:07:32;;;;;;;19.75;14.77;;;16.60;99.90;;;;;;4994252;28;20031;-69
2021/09/25 08:09:59;;;;;;;20.38;16.00;;;16.60;99.90;;;;;;4980997;28;20060;-69
2021/09/25 08:12:26;;;;;;;20.52;15.45;;;16.60;99.90;;;;;;5000236;28;20054;-69
2021/09/25 08:14:53;;;;;;;20.27;14.07;;;16.60;99.90;;;;;;5002976;28;20053;-69
2021/09/25 08:17:20;;;;;;;22.92;15.13;;;16.60;99.90;;;;;;5002517;28;20064;-69
2021/09/25 08:19:47;;;;;;;19.88;15.10;;;16.60;99.90;;;;;;5002321;28;20200;-69
2021/09/25 08:22:14;;;;;;;20.80;16.70;;;16.60;99.90;;;;;;4985256;28;20049;-69
2021/09/25 08:24:42;;;;;;;22.58;17.27;;;16.70;99.90;;;;;;4987104;28;20386;-69
2021/09/25 08:27:12;;;;;;;23.08;17.42;;;16.80;99.90;;;;;;5004770;28;20045;-69
2021/09/25 08:29:39;;;;;;;21.27;16.92;;;16.70;99.90;;;;;;4998304;28;20390;-70
2021/09/25 08:32:07;;;;;;;23.17;16.13;;;16.80;99.90;;;;;;5003195;28;20045;-70
2021/09/25 08:34:34;;;;;;;22.02;16.70;;;16.90;99.90;;;;;;5004287;28;20318;-69
2021/09/25 08:37:01;;;;;;;19.92;15.63;;;16.90;99.90;;;;;;5003753;28;20533;-69
2021/09/25 08:39:28;;;;;;;24.38;16.88;;;16.80;99.90;;;;;;4987158;28;20473;-70
2021/09/25 08:41:55;;;;;;;19.02;15.68;;;16.80;99.90;;;;;;4987030;28;20462;-69
2021/09/25 08:44:22;;;;;;;20.70;15.40;;;16.80;99.90;;;;;;5004825;28;20053;-69
2021/09/25 08:46:49;;;;;;;22.90;16.20;;;16.80;99.90;;;;;;5001667;28;20261;-69
2021/09/25 08:49:17;;;;;;;22.40;16.55;;;16.90;99.90;;;;;;4986847;28;20052;-69
2021/09/25 08:51:43;;;;;;;22.23;16.05;;;16.90;99.90;;;;;;4986527;28;20046;-70
2021/09/25 08:54:10;;;;;;;19.45;15.32;;;17.00;99.90;;;;;;5004431;28;20054;-69
2021/09/25 08:56:38;;;;;;;21.25;15.75;;;17.10;99.90;;;;;;4991942;28;20042;-69
2021/09/25 08:59:07;;;;;;;20.60;15.88;;;17.20;99.90;;;;;;4983947;28;20438;-69
2021/09/25 09:01:35;;;;;;;20.08;15.98;;;17.20;99.90;;;;;;4967973;28;20065;-69
2021/09/25 09:04:05;;;;;;;19.58;14.80;;;17.20;99.90;;;;;;4985798;28;20047;-69
2021/09/25 09:06:38;;;;;;;18.35;15.43;;;17.10;99.90;;;;;;4991358;28;20049;-68
2021/09/25 09:09:09;;;;;;;18.20;14.57;;;16.90;99.90;;;;;;5003989;28;20077;-68
2021/09/25 09:11:44;;;;;;;19.02;15.10;;;16.90;99.90;;;;;;5004372;28;20110;-68
2021/09/25 09:14:16;;;;;;;20.90;15.60;;;17.00;99.90;;;;;;5006297;28;20098;-68
2021/09/25 09:16:55;;;;;;;20.58;15.63;;;17.10;99.90;;;;;;4997016;28;20054;-69
2021/09/25 09:19:22;;;;;;;19.73;14.35;;;17.10;99.90;;;;;;4966412;28;20054;-69
2021/09/25 09:21:50;;;;;;;20.55;15.63;;;17.30;99.90;;;;;;4981641;28;20057;-69
2021/09/25 09:24:17;;;;;;;19.40;15.18;;;17.40;99.90;;;;;;4984159;28;20052;-68
2021/09/25 09:26:45;;;;;;;22.27;16.00;;;17.40;99.90;;;;;;4983865;28;20046;-68
2021/09/25 09:29:17;;;;;;;19.52;16.20;;;17.20;99.90;;;;;;4981826;28;20276;-69
2021/09/25 09:31:44;;;;;;;20.08;15.73;;;17.30;99.90;;;;;;4996988;28;20056;-69
2021/09/25 09:34:11;;;;;;;19.85;15.48;;;17.40;99.90;;;;;;4982924;28;20068;-69
2021/09/25 09:36:40;;;;;;;20.48;15.65;;;17.40;99.90;;;;;;4984659;28;20046;-69
2021/09/25 09:39:19;;;;;;;20.50;16.33;;;17.40;99.90;;;;;;5002690;28;20042;-69
2021/09/25 09:41:47;;;;;;;24.35;16.10;;;17.40;99.90;;;;;;5002176;28;20050;-69
2021/09/25 09:44:24;;;;;;;21.65;15.35;;;17.50;99.90;;;;;;4987955;28;20065;-69
2021/09/25 09:46:54;;;;;;;19.15;15.65;;;17.70;99.90;;;;;;5003122;28;20057;-69
2021/09/25 09:49:27;;;;;;;20.27;16.17;;;17.80;99.90;;;;;;5005169;28;20049;-69
2021/09/25 09:52:01;;;;;;;19.55;14.93;;;17.80;99.90;;;;;;4987332;28;20430;-69
2021/09/25 09:54:39;;;;;;;16.10;13.77;;;17.80;99.90;;;;;;5005356;28;20141;-69
2021/09/25 09:57:17;;;;;;;16.85;14.20;;;17.80;99.90;;;;;;5007210;28;20056;-69
2021/09/25 09:59:47;;;;;;;19.08;13.98;;;17.80;99.90;;;;;;4992981;28;20060;-69
2021/09/25 10:02:14;;;;;;;16.67;13.02;;;17.80;99.90;;;;;;5000424;28;20053;-69
2021/09/25 10:04:42;;;;;;;16.30;12.65;;;17.80;99.90;;;;;;5003636;28;20054;-68
2021/09/25 10:07:10;;;;;;;15.60;13.15;;;17.70;99.90;;;;;;4978770;28;20061;-68
2021/09/25 10:09:40;;;;;;;17.50;13.68;;;17.60;99.90;;;;;;5007128;28;20057;-67
2021/09/25 10:12:12;;;;;;;16.25;14.30;;;17.60;99.90;;;;;;5009022;28;20058;-68
2021/09/25 10:14:41;;;;;;;19.13;14.85;;;17.60;99.90;;;;;;4994990;28;20049;-68
2021/09/25 10:17:12;;;;;;;17.95;14.25;;;17.60;99.90;;;;;;5009454;28;20461;-68
2021/09/25 10:19:41;;;;;;;18.25;14.27;;;17.60;99.90;;;;;;5011468;28;20062;-68
2021/09/25 10:22:12;;;;;;;15.88;13.85;;;17.60;99.90;;;;;;5009443;28;20045;-68
2021/09/25 10:24:58;;;;;;;17.63;15.32;;;17.60;99.90;;;;;;4995111;28;20068;-68
2021/09/25 10:27:28;;;;;;;17.70;14.20;;;17.60;99.90;;;;;;5008999;28;20257;-68
2021/09/25 10:30:00;;;;;;;18.65;14.65;;;17.60;99.90;;;;;;4991779;28;20054;-69
2021/09/25 10:32:29;;;;;;;20.27;16.00;;;17.60;99.90;;;;;;4988032;28;20050;-69
2021/09/25 10:35:15;;;;;;;16.33;14.57;;;17.80;99.90;;;;;;4986629;28;20077;-69
2021/09/25 10:37:50;;;;;;;18.80;14.25;;;17.90;99.90;;;;;;4976730;28;20042;-68
2021/09/25 10:40:38;;;;;;;;;;;18.00;99.90;;;;;;4994559;28;20636;-68
2021/09/25 10:43:19;;;;;;;16.63;13.82;;;18.00;99.90;;;;;;4986580;28;19921;-68
2021/09/25 10:45:59;;;;;;;17.20;14.50;;;18.00;99.90;;;;;;4963019;28;20057;-69
2021/09/25 10:48:29;;;;;;;16.02;14.07;;;18.00;99.90;;;;;;4976080;28;20108;-70
2021/09/25 10:50:59;;;;;;;19.15;16.88;;;17.90;99.90;;;;;;4997237;28;20046;-69
2021/09/25 10:53:32;;;;;;;18.50;15.68;;;17.80;99.90;;;;;;4994967;28;20056;-69
2021/09/25 10:56:03;;;;;;;17.35;15.55;;;17.80;99.90;;;;;;5008644;28;20054;-68
2021/09/25 10:58:36;;;;;;;17.33;14.93;;;17.80;99.90;;;;;;5004288;28;20332;-69
2021/09/25 11:01:09;;;;;;;19.70;15.75;;;17.80;99.90;;;;;;4979782;28;20058;-69
2021/09/25 11:03:43;;;;;;;21.40;16.48;;;17.90;99.90;;;;;;4948165;28;20038;-69
2021/09/25 11:06:14;;;;;;;18.55;16.55;;;17.90;99.90;;;;;;4999752;28;20056;-69
2021/09/25 11:08:51;;;;;;;24.23;17.30;;;18.10;99.90;;;;;;4986358;28;20064;-68
2021/09/25 11:11:29;;;;;;;18.30;16.05;;;18.40;99.90;;;;;;4964956;28;20055;-69
2021/09/25 11:14:08;;;;;;;18.92;17.00;;;18.50;99.90;;;;;;4992181;28;20165;-69
2021/09/25 11:16:53;;;;;;;18.15;16.35;;;18.50;99.90;;;;;;4998443;28;20089;-69
2021/09/25 11:19:20;;;;;;;18.92;16.23;;;18.70;99.90;;;;;;5001646;28;20044;-69
2021/09/25 11:22:02;;;;;;;19.85;16.38;;;18.90;99.90;;;;;;5001804;28;20046;-69
2021/09/25 11:24:32;;;;;;;17.50;15.65;;;18.80;99.90;;;;;;5003917;28;20050;-68
2021/09/25 11:27:01;;;;;;;16.50;14.82;;;18.80;99.90;;;;;;5002169;28;20158;-69
2021/09/25 11:29:28;;;;;;;16.00;14.48;;;18.70;99.90;;;;;;4993758;28;20502;-69
2021/09/25 11:32:03;;;;;;;18.95;15.48;;;19.00;99.90;;;;;;4994591;28;20485;-69
2021/09/25 11:34:31;;;;;;;20.00;14.77;;;19.10;99.90;;;;;;4997536;28;20045;-69
2021/09/25 11:37:01;;;;;;;18.48;15.57;;;19.30;99.90;;;;;;4994038;28;20053;-69
2021/09/25 11:39:44;;;;;;;16.88;15.18;;;19.30;99.90;;;;;;4986758;28;20130;-69
2021/09/25 11:42:16;;;;;;;18.52;16.17;;;19.40;99.90;;;;;;5000067;28;20050;-69
2021/09/25 11:44:52;;;;;;;17.02;15.52;;;19.40;99.90;;;;;;5004880;28;20058;-69
2021/09/25 11:47:24;;;;;;;17.95;16.15;;;19.50;99.90;;;;;;5002540;28;20054;-70
2021/09/25 11:49:53;;;;;;;17.88;16.13;;;19.40;99.90;;;;;;4983388;28;20081;-69
2021/09/25 11:52:20;;;;;;;20.05;16.73;;;19.40;99.90;;;;;;4999852;28;20133;-69
2021/09/25 11:54:48;;;;;;;17.38;15.88;;;19.40;99.90;;;;;;5002331;28;20070;-69
2021/09/25 11:57:25;;;;;;;17.02;15.43;;;19.40;99.90;;;;;;4998618;28;20050;-69
2021/09/25 11:59:54;;;;;;;17.27;15.77;;;19.30;99.90;;;;;;4983981;28;20054;-69
2021/09/25 12:02:42;;;;;;;17.77;16.27;;;19.30;99.90;;;;;;4992208;28;20425;-69
2021/09/25 12:05:29;;;;;;;15.50;14.07;;;19.30;99.90;;;;;;4980587;28;20061;-69
2021/09/25 12:08:02;;;;;;;17.33;15.63;;;19.30;99.90;;;;;;4981763;28;20066;-69
2021/09/25 12:10:40;;;;;;;17.85;16.20;;;19.20;99.90;;;;;;4979940;28;20381;-72
2021/09/25 12:13:11;;;;;;;18.17;16.48;;;19.30;99.90;;;;;;5002210;28;20042;-69
2021/09/25 12:16:03;;;;;;;18.10;16.13;;;19.40;99.90;;;;;;5002250;28;20498;-69
2021/09/25 12:18:42;;;;;;;17.95;16.15;;;19.50;99.90;;;;;;5000713;28;20135;-69
2021/09/25 12:21:15;;;;;;;18.30;16.60;;;19.40;99.90;;;;;;5000860;28;20153;-69
2021/09/25 12:23:51;;;;;;;17.63;16.02;;;19.40;99.90;;;;;;5001521;28;20064;-69
2021/09/25 12:26:27;;;;;;;17.35;15.73;;;19.50;99.90;;;;;;5001220;28;20274;-69
2021/09/25 12:28:59;;;;;;;17.30;15.77;;;19.70;99.90;;;;;;4992269;28;20447;-69
2021/09/25 12:31:39;;;;;;;16.80;15.20;;;19.70;99.90;;;;;;4990770;28;20581;-69
2021/09/25 12:34:10;;;;;;;16.95;15.60;;;19.70;99.90;;;;;;4986237;28;20073;-69
2021/09/25 12:36:43;;;;;;;20.50;18.33;;;19.70;99.90;;;;;;4964533;28;20049;-68